sensor_id;sensor_type;location;lat;lon;timestamp;temperature;humidity
30150;DHT22;16962;48.646;9.026;2024-02-15T00:01:35;9.60;60.20
30150;DHT22;16962;48.646;9.026;2024-02-15T00:04:23;9.60;71.60
30150;DHT22;16962;48.646;9.026;2024-02-15T00:07:10;9.60;68.80
30150;DHT22;16962;48.646;9.026;2024-02-15T00:09:58;9.60;79.20
30150;DHT22;16962;48.646;9.026;2024-02-15T00:12:46;9.60;85.50
30150;DHT22;16962;48.646;9.026;2024-02-15T00:15:35;9.50;91.60
30150;DHT22;16962;48.646;9.026;2024-02-15T00:18:24;9.60;96.80
30150;DHT22;16962;48.646;9.026;2024-02-15T00:21:12;9.60;91.10
30150;DHT22;16962;48.646;9.026;2024-02-15T00:24:00;9.70;67.80
30150;DHT22;16962;48.646;9.026;2024-02-15T00:26:49;9.70;56.00
30150;DHT22;16962;48.646;9.026;2024-02-15T00:29:40;9.70;42.20
30150;DHT22;16962;48.646;9.026;2024-02-15T00:32:27;9.70;21.50
30150;DHT22;16962;48.646;9.026;2024-02-15T00:35:16;9.60;7.70
30150;DHT22;16962;48.646;9.026;2024-02-15T00:38:04;9.60;6.80
30150;DHT22;16962;48.646;9.026;2024-02-15T00:40:53;9.60;11.60
30150;DHT22;16962;48.646;9.026;2024-02-15T00:43:40;9.60;33.00
30150;DHT22;16962;48.646;9.026;2024-02-15T00:46:28;9.50;51.00
30150;DHT22;16962;48.646;9.026;2024-02-15T00:49:16;9.50;89.00
30150;DHT22;16962;48.646;9.026;2024-02-15T00:52:06;9.50;99.90
30150;DHT22;16962;48.646;9.026;2024-02-15T00:54:54;9.50;99.90
30150;DHT22;16962;48.646;9.026;2024-02-15T00:57:43;9.40;99.90
30150;DHT22;16962;48.646;9.026;2024-02-15T01:00:31;9.40;99.90
30150;DHT22;16962;48.646;9.026;2024-02-15T01:03:19;9.40;99.90
30150;DHT22;16962;48.646;9.026;2024-02-15T01:06:08;9.30;99.90
30150;DHT22;16962;48.646;9.026;2024-02-15T01:08:55;9.30;99.90
30150;DHT22;16962;48.646;9.026;2024-02-15T01:11:44;9.20;99.90
30150;DHT22;16962;48.646;9.026;2024-02-15T01:14:32;9.10;99.90
30150;DHT22;16962;48.646;9.026;2024-02-15T01:17:19;9.10;99.90
30150;DHT22;16962;48.646;9.026;2024-02-15T01:20:09;9.00;99.90
30150;DHT22;16962;48.646;9.026;2024-02-15T01:22:57;9.00;99.90
30150;DHT22;16962;48.646;9.026;2024-02-15T01:25:46;9.00;99.90
30150;DHT22;16962;48.646;9.026;2024-02-15T01:28:33;9.00;99.90
30150;DHT22;16962;48.646;9.026;2024-02-15T01:31:23;9.00;99.90
30150;DHT22;16962;48.646;9.026;2024-02-15T01:34:11;9.00;99.90
30150;DHT22;16962;48.646;9.026;2024-02-15T01:36:58;9.00;99.90
30150;DHT22;16962;48.646;9.026;2024-02-15T01:39:46;9.00;99.90
30150;DHT22;16962;48.646;9.026;2024-02-15T01:42:34;8.90;99.90
30150;DHT22;16962;48.646;9.026;2024-02-15T01:45:21;8.80;1.00
30150;DHT22;16962;48.646;9.026;2024-02-15T01:48:09;8.70;1.00
30150;DHT22;16962;48.646;9.026;2024-02-15T01:50:58;8.60;1.00
30150;DHT22;16962;48.646;9.026;2024-02-15T01:53:47;8.60;1.00
30150;DHT22;16962;48.646;9.026;2024-02-15T01:56:35;8.50;1.00
30150;DHT22;16962;48.646;9.026;2024-02-15T01:59:25;8.40;59.10
30150;DHT22;16962;48.646;9.026;2024-02-15T02:02:14;8.40;99.90
30150;DHT22;16962;48.646;9.026;2024-02-15T02:05:04;8.30;99.90
30150;DHT22;16962;48.646;9.026;2024-02-15T02:07:52;8.20;99.90
30150;DHT22;16962;48.646;9.026;2024-02-15T02:10:40;8.20;99.90
30150;DHT22;16962;48.646;9.026;2024-02-15T02:13:28;8.10;99.90
30150;DHT22;16962;48.646;9.026;2024-02-15T02:16:31;8.10;1.00
30150;DHT22;16962;48.646;9.026;2024-02-15T02:19:19;8.00;1.00
30150;DHT22;16962;48.646;9.026;2024-02-15T02:22:09;8.00;3.20
30150;DHT22;16962;48.646;9.026;2024-02-15T02:25:06;8.00;99.90
30150;DHT22;16962;48.646;9.026;2024-02-15T02:27:53;7.90;99.90
30150;DHT22;16962;48.646;9.026;2024-02-15T02:30:42;8.00;99.90
30150;DHT22;16962;48.646;9.026;2024-02-15T02:33:33;7.90;99.90
30150;DHT22;16962;48.646;9.026;2024-02-15T02:36:22;7.90;99.90
30150;DHT22;16962;48.646;9.026;2024-02-15T02:39:14;7.90;1.00
30150;DHT22;16962;48.646;9.026;2024-02-15T02:42:01;7.80;1.00
30150;DHT22;16962;48.646;9.026;2024-02-15T02:44:51;7.80;1.00
30150;DHT22;16962;48.646;9.026;2024-02-15T02:47:39;7.80;38.00
30150;DHT22;16962;48.646;9.026;2024-02-15T02:50:27;7.80;99.90
30150;DHT22;16962;48.646;9.026;2024-02-15T02:53:15;7.70;99.90
30150;DHT22;16962;48.646;9.026;2024-02-15T02:56:02;7.70;99.90
30150;DHT22;16962;48.646;9.026;2024-02-15T02:58:50;7.70;99.90
30150;DHT22;16962;48.646;9.026;2024-02-15T03:01:40;7.70;99.90
30150;DHT22;16962;48.646;9.026;2024-02-15T03:04:28;7.60;1.00
30150;DHT22;16962;48.646;9.026;2024-02-15T03:07:15;7.60;29.90
30150;DHT22;16962;48.646;9.026;2024-02-15T03:10:06;7.50;99.90
30150;DHT22;16962;48.646;9.026;2024-02-15T03:13:02;7.60;99.90
30150;DHT22;16962;48.646;9.026;2024-02-15T03:15:52;7.60;1.00
30150;DHT22;16962;48.646;9.026;2024-02-15T03:18:39;7.60;1.00
30150;DHT22;16962;48.646;9.026;2024-02-15T03:21:29;7.50;1.00
30150;DHT22;16962;48.646;9.026;2024-02-15T03:24:16;7.50;45.60
30150;DHT22;16962;48.646;9.026;2024-02-15T03:27:04;7.50;99.90
30150;DHT22;16962;48.646;9.026;2024-02-15T03:29:52;7.50;99.90
30150;DHT22;16962;48.646;9.026;2024-02-15T03:32:41;7.60;99.90
30150;DHT22;16962;48.646;9.026;2024-02-15T03:35:28;7.60;1.00
30150;DHT22;16962;48.646;9.026;2024-02-15T03:38:18;7.60;1.00
30150;DHT22;16962;48.646;9.026;2024-02-15T03:41:06;7.60;99.90
30150;DHT22;16962;48.646;9.026;2024-02-15T03:43:54;7.50;99.90
30150;DHT22;16962;48.646;9.026;2024-02-15T03:46:42;7.50;99.90
30150;DHT22;16962;48.646;9.026;2024-02-15T03:49:31;7.40;99.90
30150;DHT22;16962;48.646;9.026;2024-02-15T03:52:21;7.40;99.90
30150;DHT22;16962;48.646;9.026;2024-02-15T03:55:09;7.40;99.90
30150;DHT22;16962;48.646;9.026;2024-02-15T03:58:07;7.40;99.90
30150;DHT22;16962;48.646;9.026;2024-02-15T04:00:56;7.40;99.90
30150;DHT22;16962;48.646;9.026;2024-02-15T04:03:44;7.40;99.90
30150;DHT22;16962;48.646;9.026;2024-02-15T04:06:32;7.50;99.90
30150;DHT22;16962;48.646;9.026;2024-02-15T04:09:25;7.50;99.90
30150;DHT22;16962;48.646;9.026;2024-02-15T04:12:12;7.60;99.90
30150;DHT22;16962;48.646;9.026;2024-02-15T04:15:01;7.60;99.90
30150;DHT22;16962;48.646;9.026;2024-02-15T04:17:54;7.60;97.50
30150;DHT22;16962;48.646;9.026;2024-02-15T04:20:43;7.70;1.00
30150;DHT22;16962;48.646;9.026;2024-02-15T04:23:35;7.70;1.00
30150;DHT22;16962;48.646;9.026;2024-02-15T04:26:25;7.70;99.90
30150;DHT22;16962;48.646;9.026;2024-02-15T04:29:15;7.70;99.90
30150;DHT22;16962;48.646;9.026;2024-02-15T04:32:02;7.70;99.90
30150;DHT22;16962;48.646;9.026;2024-02-15T04:34:51;7.70;99.90
30150;DHT22;16962;48.646;9.026;2024-02-15T04:37:39;7.70;99.90
30150;DHT22;16962;48.646;9.026;2024-02-15T04:40:27;7.70;99.90
30150;DHT22;16962;48.646;9.026;2024-02-15T04:43:15;7.80;37.00
30150;DHT22;16962;48.646;9.026;2024-02-15T04:46:03;7.90;1.00
30150;DHT22;16962;48.646;9.026;2024-02-15T04:48:59;7.90;1.00
30150;DHT22;16962;48.646;9.026;2024-02-15T04:51:50;7.90;1.00
30150;DHT22;16962;48.646;9.026;2024-02-15T04:54:38;7.80;99.90
30150;DHT22;16962;48.646;9.026;2024-02-15T04:57:26;7.70;99.90
30150;DHT22;16962;48.646;9.026;2024-02-15T05:00:17;7.60;99.90
30150;DHT22;16962;48.646;9.026;2024-02-15T05:03:08;7.50;99.90
30150;DHT22;16962;48.646;9.026;2024-02-15T05:05:56;7.40;99.90
30150;DHT22;16962;48.646;9.026;2024-02-15T05:08:44;7.40;99.90
30150;DHT22;16962;48.646;9.026;2024-02-15T05:11:36;7.40;1.00
30150;DHT22;16962;48.646;9.026;2024-02-15T05:14:25;7.30;1.00
30150;DHT22;16962;48.646;9.026;2024-02-15T05:17:14;7.30;1.00
30150;DHT22;16962;48.646;9.026;2024-02-15T05:20:05;7.20;1.00
30150;DHT22;16962;48.646;9.026;2024-02-15T05:22:58;7.20;2.60
30150;DHT22;16962;48.646;9.026;2024-02-15T05:25:46;7.10;98.50
30150;DHT22;16962;48.646;9.026;2024-02-15T05:28:35;7.00;99.90
30150;DHT22;16962;48.646;9.026;2024-02-15T05:31:22;6.90;99.90
30150;DHT22;16962;48.646;9.026;2024-02-15T05:34:15;6.80;99.90
30150;DHT22;16962;48.646;9.026;2024-02-15T05:37:03;6.70;1.00
30150;DHT22;16962;48.646;9.026;2024-02-15T05:39:50;6.70;99.90
30150;DHT22;16962;48.646;9.026;2024-02-15T05:42:44;6.70;1.00
30150;DHT22;16962;48.646;9.026;2024-02-15T05:45:34;6.70;99.90
30150;DHT22;16962;48.646;9.026;2024-02-15T05:48:23;6.70;99.90
30150;DHT22;16962;48.646;9.026;2024-02-15T05:51:11;6.70;99.90
30150;DHT22;16962;48.646;9.026;2024-02-15T05:53:59;6.70;1.00
30150;DHT22;16962;48.646;9.026;2024-02-15T05:56:46;6.70;23.90
30150;DHT22;16962;48.646;9.026;2024-02-15T05:59:51;6.70;99.90
30150;DHT22;16962;48.646;9.026;2024-02-15T06:02:42;6.70;1.00
30150;DHT22;16962;48.646;9.026;2024-02-15T06:05:32;6.70;99.90
30150;DHT22;16962;48.646;9.026;2024-02-15T06:08:21;6.70;99.90
30150;DHT22;16962;48.646;9.026;2024-02-15T06:11:10;6.70;99.90
30150;DHT22;16962;48.646;9.026;2024-02-15T06:13:58;6.60;99.90
30150;DHT22;16962;48.646;9.026;2024-02-15T06:16:46;6.50;99.90
30150;DHT22;16962;48.646;9.026;2024-02-15T06:19:36;6.50;99.90
30150;DHT22;16962;48.646;9.026;2024-02-15T06:22:25;6.40;1.00
30150;DHT22;16962;48.646;9.026;2024-02-15T06:25:14;6.30;99.90
30150;DHT22;16962;48.646;9.026;2024-02-15T06:28:08;6.30;1.00
30150;DHT22;16962;48.646;9.026;2024-02-15T06:31:16;6.20;99.90
30150;DHT22;16962;48.646;9.026;2024-02-15T06:34:26;6.10;99.90
30150;DHT22;16962;48.646;9.026;2024-02-15T06:37:38;6.00;1.00
30150;DHT22;16962;48.646;9.026;2024-02-15T06:40:44;6.00;14.80
30150;DHT22;16962;48.646;9.026;2024-02-15T06:43:32;6.10;99.90
30150;DHT22;16962;48.646;9.026;2024-02-15T06:46:21;6.20;99.90
30150;DHT22;16962;48.646;9.026;2024-02-15T06:49:08;6.30;99.90
30150;DHT22;16962;48.646;9.026;2024-02-15T06:51:57;6.40;99.90
30150;DHT22;16962;48.646;9.026;2024-02-15T06:54:46;6.40;99.90
30150;DHT22;16962;48.646;9.026;2024-02-15T06:57:34;6.50;99.90
30150;DHT22;16962;48.646;9.026;2024-02-15T07:00:26;6.60;99.90
30150;DHT22;16962;48.646;9.026;2024-02-15T07:03:13;6.70;17.40
30150;DHT22;16962;48.646;9.026;2024-02-15T07:06:01;6.80;1.00
30150;DHT22;16962;48.646;9.026;2024-02-15T07:08:51;6.80;99.90
30150;DHT22;16962;48.646;9.026;2024-02-15T07:11:42;6.90;71.10
30150;DHT22;16962;48.646;9.026;2024-02-15T07:14:33;6.90;1.00
30150;DHT22;16962;48.646;9.026;2024-02-15T07:17:22;7.10;99.90
30150;DHT22;16962;48.646;9.026;2024-02-15T07:20:12;7.30;13.00
30150;DHT22;16962;48.646;9.026;2024-02-15T07:23:05;7.60;82.10
30150;DHT22;16962;48.646;9.026;2024-02-15T07:25:53;8.10;99.90
30150;DHT22;16962;48.646;9.026;2024-02-15T07:28:41;8.30;1.00
30150;DHT22;16962;48.646;9.026;2024-02-15T07:31:28;8.60;1.00
30150;DHT22;16962;48.646;9.026;2024-02-15T07:34:17;9.00;1.00
30150;DHT22;16962;48.646;9.026;2024-02-15T07:37:07;9.40;1.00
30150;DHT22;16962;48.646;9.026;2024-02-15T07:39:55;9.80;23.10
30150;DHT22;16962;48.646;9.026;2024-02-15T07:42:49;9.90;99.90
30150;DHT22;16962;48.646;9.026;2024-02-15T07:45:40;9.90;1.00
30150;DHT22;16962;48.646;9.026;2024-02-15T07:48:28;9.90;99.90
30150;DHT22;16962;48.646;9.026;2024-02-15T07:51:17;9.90;99.90
30150;DHT22;16962;48.646;9.026;2024-02-15T07:54:08;9.80;99.90
30150;DHT22;16962;48.646;9.026;2024-02-15T07:56:55;9.90;17.20
30150;DHT22;16962;48.646;9.026;2024-02-15T07:59:44;10.20;1.00
30150;DHT22;16962;48.646;9.026;2024-02-15T08:02:32;10.40;1.00
30150;DHT22;16962;48.646;9.026;2024-02-15T08:05:20;10.70;99.90
30150;DHT22;16962;48.646;9.026;2024-02-15T08:08:08;10.60;99.90
30150;DHT22;16962;48.646;9.026;2024-02-15T08:10:55;10.60;99.90
30150;DHT22;16962;48.646;9.026;2024-02-15T08:13:52;10.60;99.90
30150;DHT22;16962;48.646;9.026;2024-02-15T08:16:41;10.70;99.90
30150;DHT22;16962;48.646;9.026;2024-02-15T08:19:29;10.80;99.90
30150;DHT22;16962;48.646;9.026;2024-02-15T08:22:18;11.00;99.90
30150;DHT22;16962;48.646;9.026;2024-02-15T08:25:13;11.00;99.90
30150;DHT22;16962;48.646;9.026;2024-02-15T08:28:02;11.00;99.90
30150;DHT22;16962;48.646;9.026;2024-02-15T08:30:53;11.00;99.90
30150;DHT22;16962;48.646;9.026;2024-02-15T08:33:42;11.00;99.90
30150;DHT22;16962;48.646;9.026;2024-02-15T08:36:33;11.10;99.90
30150;DHT22;16962;48.646;9.026;2024-02-15T08:39:21;11.30;99.90
30150;DHT22;16962;48.646;9.026;2024-02-15T08:42:10;11.30;47.80
30150;DHT22;16962;48.646;9.026;2024-02-15T08:44:58;11.20;28.80
30150;DHT22;16962;48.646;9.026;2024-02-15T08:47:46;11.20;15.60
30150;DHT22;16962;48.646;9.026;2024-02-15T08:50:37;11.20;8.40
30150;DHT22;16962;48.646;9.026;2024-02-15T08:53:25;11.30;1.00
30150;DHT22;16962;48.646;9.026;2024-02-15T08:56:16;11.40;5.70
30150;DHT22;16962;48.646;9.026;2024-02-15T08:59:03;11.60;1.00
30150;DHT22;16962;48.646;9.026;2024-02-15T09:01:51;11.40;9.10
30150;DHT22;16962;48.646;9.026;2024-02-15T09:04:40;11.40;3.10
30150;DHT22;16962;48.646;9.026;2024-02-15T09:07:32;11.50;1.00
30150;DHT22;16962;48.646;9.026;2024-02-15T09:10:20;11.80;1.00
30150;DHT22;16962;48.646;9.026;2024-02-15T09:13:10;12.20;1.00
30150;DHT22;16962;48.646;9.026;2024-02-15T09:15:57;12.20;1.00
30150;DHT22;16962;48.646;9.026;2024-02-15T09:18:45;12.20;1.00
30150;DHT22;16962;48.646;9.026;2024-02-15T09:21:33;12.60;1.00
30150;DHT22;16962;48.646;9.026;2024-02-15T09:24:24;13.30;1.00
30150;DHT22;16962;48.646;9.026;2024-02-15T09:27:12;14.00;1.00
30150;DHT22;16962;48.646;9.026;2024-02-15T09:30:00;14.50;99.90
30150;DHT22;16962;48.646;9.026;2024-02-15T09:32:47;14.50;99.90
30150;DHT22;16962;48.646;9.026;2024-02-15T09:35:35;14.60;99.90
30150;DHT22;16962;48.646;9.026;2024-02-15T09:38:23;14.40;99.90
30150;DHT22;16962;48.646;9.026;2024-02-15T09:41:12;14.40;99.90
30150;DHT22;16962;48.646;9.026;2024-02-15T09:44:00;14.40;99.90
30150;DHT22;16962;48.646;9.026;2024-02-15T09:46:52;14.60;99.90
30150;DHT22;16962;48.646;9.026;2024-02-15T09:49:45;14.90;99.90
30150;DHT22;16962;48.646;9.026;2024-02-15T09:52:35;15.30;99.90
30150;DHT22;16962;48.646;9.026;2024-02-15T09:55:24;16.30;99.90
30150;DHT22;16962;48.646;9.026;2024-02-15T09:58:14;17.30;99.90
30150;DHT22;16962;48.646;9.026;2024-02-15T10:01:05;18.20;99.90
30150;DHT22;16962;48.646;9.026;2024-02-15T10:03:58;18.70;99.90
30150;DHT22;16962;48.646;9.026;2024-02-15T10:06:46;19.70;99.90
30150;DHT22;16962;48.646;9.026;2024-02-15T10:09:36;20.20;99.90
30150;DHT22;16962;48.646;9.026;2024-02-15T10:12:37;20.60;99.90
30150;DHT22;16962;48.646;9.026;2024-02-15T10:15:38;20.70;99.90
30150;DHT22;16962;48.646;9.026;2024-02-15T10:18:26;19.80;99.90
30150;DHT22;16962;48.646;9.026;2024-02-15T10:21:27;19.00;99.90
30150;DHT22;16962;48.646;9.026;2024-02-15T10:24:18;18.20;99.90
30150;DHT22;16962;48.646;9.026;2024-02-15T10:27:07;18.50;99.90
30150;DHT22;16962;48.646;9.026;2024-02-15T10:30:14;19.20;99.90
30150;DHT22;16962;48.646;9.026;2024-02-15T10:33:03;19.20;99.90
30150;DHT22;16962;48.646;9.026;2024-02-15T10:36:08;19.20;99.90
30150;DHT22;16962;48.646;9.026;2024-02-15T10:39:11;19.30;99.90
30150;DHT22;16962;48.646;9.026;2024-02-15T10:42:06;19.40;99.90
30150;DHT22;16962;48.646;9.026;2024-02-15T10:44:55;19.30;99.90
30150;DHT22;16962;48.646;9.026;2024-02-15T10:47:44;19.50;99.90
30150;DHT22;16962;48.646;9.026;2024-02-15T10:50:33;19.60;99.90
30150;DHT22;16962;48.646;9.026;2024-02-15T10:56:18;20.40;99.90
30150;DHT22;16962;48.646;9.026;2024-02-15T11:02:25;21.90;99.90
30150;DHT22;16962;48.646;9.026;2024-02-15T11:05:12;20.70;99.90
30150;DHT22;16962;48.646;9.026;2024-02-15T11:08:06;20.30;99.40
30150;DHT22;16962;48.646;9.026;2024-02-15T11:10:55;20.40;1.00
30150;DHT22;16962;48.646;9.026;2024-02-15T11:13:46;20.30;1.00
30150;DHT22;16962;48.646;9.026;2024-02-15T11:16:43;20.00;99.90
30150;DHT22;16962;48.646;9.026;2024-02-15T11:19:40;20.10;57.40
30150;DHT22;16962;48.646;9.026;2024-02-15T11:22:28;21.40;14.90
30150;DHT22;16962;48.646;9.026;2024-02-15T11:25:34;21.80;1.00
30150;DHT22;16962;48.646;9.026;2024-02-15T11:31:10;21.10;1.00
30150;DHT22;16962;48.646;9.026;2024-02-15T11:35:06;21.00;1.00
30150;DHT22;16962;48.646;9.026;2024-02-15T11:38:02;20.70;1.00
30150;DHT22;16962;48.646;9.026;2024-02-15T11:43:46;20.30;21.90
30150;DHT22;16962;48.646;9.026;2024-02-15T11:46:52;20.20;24.20
30150;DHT22;16962;48.646;9.026;2024-02-15T11:49:42;20.10;24.40
30150;DHT22;16962;48.646;9.026;2024-02-15T11:52:31;20.30;28.50
30150;DHT22;16962;48.646;9.026;2024-02-15T11:55:20;19.70;43.20
30150;DHT22;16962;48.646;9.026;2024-02-15T11:58:08;19.90;53.40
30150;DHT22;16962;48.646;9.026;2024-02-15T12:01:00;19.50;58.20
30150;DHT22;16962;48.646;9.026;2024-02-15T12:04:06;19.70;58.40
30150;DHT22;16962;48.646;9.026;2024-02-15T12:07:14;19.10;60.60
30150;DHT22;16962;48.646;9.026;2024-02-15T12:10:20;19.20;60.10
30150;DHT22;16962;48.646;9.026;2024-02-15T12:13:27;18.50;60.70
30150;DHT22;16962;48.646;9.026;2024-02-15T12:16:33;19.10;61.00
30150;DHT22;16962;48.646;9.026;2024-02-15T12:19:39;19.30;59.40
30150;DHT22;16962;48.646;9.026;2024-02-15T12:22:32;19.20;59.60
30150;DHT22;16962;48.646;9.026;2024-02-15T12:25:21;19.70;59.70
30150;DHT22;16962;48.646;9.026;2024-02-15T12:28:09;19.80;59.10
30150;DHT22;16962;48.646;9.026;2024-02-15T12:30:58;20.10;59.50
30150;DHT22;16962;48.646;9.026;2024-02-15T12:33:46;20.10;60.60
30150;DHT22;16962;48.646;9.026;2024-02-15T12:36:39;19.80;60.80
30150;DHT22;16962;48.646;9.026;2024-02-15T12:39:26;19.40;60.80
30150;DHT22;16962;48.646;9.026;2024-02-15T12:42:16;19.50;60.40
30150;DHT22;16962;48.646;9.026;2024-02-15T12:45:06;19.80;61.20
30150;DHT22;16962;48.646;9.026;2024-02-15T12:47:55;20.40;62.10
30150;DHT22;16962;48.646;9.026;2024-02-15T12:50:43;20.10;59.20
30150;DHT22;16962;48.646;9.026;2024-02-15T12:53:30;19.90;60.00
30150;DHT22;16962;48.646;9.026;2024-02-15T12:56:22;19.90;60.00
30150;DHT22;16962;48.646;9.026;2024-02-15T12:59:11;19.50;59.80
30150;DHT22;16962;48.646;9.026;2024-02-15T13:01:59;19.20;61.20
30150;DHT22;16962;48.646;9.026;2024-02-15T13:04:46;18.90;62.30
30150;DHT22;16962;48.646;9.026;2024-02-15T13:07:36;18.90;63.40
30150;DHT22;16962;48.646;9.026;2024-02-15T13:10:24;18.70;63.40
30150;DHT22;16962;48.646;9.026;2024-02-15T13:13:12;18.30;65.10
30150;DHT22;16962;48.646;9.026;2024-02-15T13:16:07;18.10;67.30
30150;DHT22;16962;48.646;9.026;2024-02-15T13:18:54;18.00;67.00
30150;DHT22;16962;48.646;9.026;2024-02-15T13:21:45;17.80;67.60
30150;DHT22;16962;48.646;9.026;2024-02-15T13:24:40;18.10;67.00
30150;DHT22;16962;48.646;9.026;2024-02-15T13:27:28;18.40;65.20
30150;DHT22;16962;48.646;9.026;2024-02-15T13:30:15;18.30;65.40
30150;DHT22;16962;48.646;9.026;2024-02-15T13:33:08;18.10;66.50
30150;DHT22;16962;48.646;9.026;2024-02-15T13:36:00;18.30;65.50
30150;DHT22;16962;48.646;9.026;2024-02-15T13:38:47;18.30;65.70
30150;DHT22;16962;48.646;9.026;2024-02-15T13:41:37;18.40;65.80
30150;DHT22;16962;48.646;9.026;2024-02-15T13:44:27;17.90;66.50
30150;DHT22;16962;48.646;9.026;2024-02-15T13:47:15;17.70;66.60
30150;DHT22;16962;48.646;9.026;2024-02-15T13:50:05;17.60;68.30
30150;DHT22;16962;48.646;9.026;2024-02-15T13:52:52;17.60;69.00
30150;DHT22;16962;48.646;9.026;2024-02-15T13:55:41;17.60;69.10
30150;DHT22;16962;48.646;9.026;2024-02-15T13:58:31;17.50;69.80
30150;DHT22;16962;48.646;9.026;2024-02-15T14:01:18;17.40;69.80
30150;DHT22;16962;48.646;9.026;2024-02-15T14:04:17;17.20;70.40
30150;DHT22;16962;48.646;9.026;2024-02-15T14:07:15;17.10;71.40
30150;DHT22;16962;48.646;9.026;2024-02-15T14:10:09;17.10;70.70
30150;DHT22;16962;48.646;9.026;2024-02-15T14:12:57;17.00;71.20
30150;DHT22;16962;48.646;9.026;2024-02-15T14:15:53;17.20;72.50
30150;DHT22;16962;48.646;9.026;2024-02-15T14:18:41;17.50;72.60
30150;DHT22;16962;48.646;9.026;2024-02-15T14:21:32;17.70;71.00
30150;DHT22;16962;48.646;9.026;2024-02-15T14:24:26;17.90;70.90
30150;DHT22;16962;48.646;9.026;2024-02-15T14:27:14;18.00;71.70
30150;DHT22;16962;48.646;9.026;2024-02-15T14:30:04;18.40;68.80
30150;DHT22;16962;48.646;9.026;2024-02-15T14:33:11;18.50;69.50
30150;DHT22;16962;48.646;9.026;2024-02-15T14:36:08;18.70;70.20
30150;DHT22;16962;48.646;9.026;2024-02-15T14:38:58;19.00;69.00
30150;DHT22;16962;48.646;9.026;2024-02-15T14:41:45;19.20;68.70
30150;DHT22;16962;48.646;9.026;2024-02-15T14:44:36;19.50;66.80
30150;DHT22;16962;48.646;9.026;2024-02-15T14:47:28;19.20;66.70
30150;DHT22;16962;48.646;9.026;2024-02-15T14:50:16;18.80;67.80
30150;DHT22;16962;48.646;9.026;2024-02-15T14:53:03;18.50;69.80
30150;DHT22;16962;48.646;9.026;2024-02-15T14:55:51;18.40;71.50
30150;DHT22;16962;48.646;9.026;2024-02-15T14:58:43;18.60;69.80
30150;DHT22;16962;48.646;9.026;2024-02-15T15:01:31;18.40;68.70
30150;DHT22;16962;48.646;9.026;2024-02-15T15:04:19;17.80;71.20
30150;DHT22;16962;48.646;9.026;2024-02-15T15:07:07;17.90;71.60
30150;DHT22;16962;48.646;9.026;2024-02-15T15:10:13;17.90;71.80
30150;DHT22;16962;48.646;9.026;2024-02-15T15:13:21;17.80;72.40
30150;DHT22;16962;48.646;9.026;2024-02-15T15:16:11;17.50;74.00
30150;DHT22;16962;48.646;9.026;2024-02-15T15:19:19;17.20;75.80
30150;DHT22;16962;48.646;9.026;2024-02-15T15:22:07;17.00;75.10
30150;DHT22;16962;48.646;9.026;2024-02-15T15:24:55;17.00;75.80
30150;DHT22;16962;48.646;9.026;2024-02-15T15:27:42;16.70;76.70
30150;DHT22;16962;48.646;9.026;2024-02-15T15:30:31;16.50;78.00
30150;DHT22;16962;48.646;9.026;2024-02-15T15:33:21;16.40;78.90
30150;DHT22;16962;48.646;9.026;2024-02-15T15:36:10;16.30;79.40
30150;DHT22;16962;48.646;9.026;2024-02-15T15:38:59;16.00;80.70
30150;DHT22;16962;48.646;9.026;2024-02-15T15:41:55;16.00;80.90
30150;DHT22;16962;48.646;9.026;2024-02-15T15:44:44;15.80;81.40
30150;DHT22;16962;48.646;9.026;2024-02-15T15:47:33;15.60;82.70
30150;DHT22;16962;48.646;9.026;2024-02-15T15:50:21;15.40;84.00
30150;DHT22;16962;48.646;9.026;2024-02-15T15:53:11;15.20;84.90
30150;DHT22;16962;48.646;9.026;2024-02-15T15:55:59;15.00;86.40
30150;DHT22;16962;48.646;9.026;2024-02-15T15:58:49;14.80;87.10
30150;DHT22;16962;48.646;9.026;2024-02-15T16:01:50;14.70;87.70
30150;DHT22;16962;48.646;9.026;2024-02-15T16:04:45;14.50;89.30
30150;DHT22;16962;48.646;9.026;2024-02-15T16:07:33;14.40;90.10
30150;DHT22;16962;48.646;9.026;2024-02-15T16:10:23;14.30;90.70
30150;DHT22;16962;48.646;9.026;2024-02-15T16:13:15;14.20;91.20
30150;DHT22;16962;48.646;9.026;2024-02-15T16:16:04;14.00;91.50
30150;DHT22;16962;48.646;9.026;2024-02-15T16:18:52;13.90;91.80
30150;DHT22;16962;48.646;9.026;2024-02-15T16:21:40;13.80;92.50
30150;DHT22;16962;48.646;9.026;2024-02-15T16:24:28;13.70;93.20
30150;DHT22;16962;48.646;9.026;2024-02-15T16:27:24;13.60;93.90
30150;DHT22;16962;48.646;9.026;2024-02-15T16:30:14;13.50;94.60
30150;DHT22;16962;48.646;9.026;2024-02-15T16:33:03;13.30;95.40
30150;DHT22;16962;48.646;9.026;2024-02-15T16:35:54;13.20;95.60
30150;DHT22;16962;48.646;9.026;2024-02-15T16:38:44;13.10;95.10
30150;DHT22;16962;48.646;9.026;2024-02-15T16:41:33;13.00;95.40
30150;DHT22;16962;48.646;9.026;2024-02-15T16:44:20;12.90;99.90
30150;DHT22;16962;48.646;9.026;2024-02-15T16:47:08;12.80;99.90
30150;DHT22;16962;48.646;9.026;2024-02-15T16:49:57;12.70;99.90
30150;DHT22;16962;48.646;9.026;2024-02-15T16:52:48;12.60;99.90
30150;DHT22;16962;48.646;9.026;2024-02-15T16:55:36;12.50;99.90
30150;DHT22;16962;48.646;9.026;2024-02-15T16:58:24;12.50;99.90
30150;DHT22;16962;48.646;9.026;2024-02-15T17:01:13;12.40;99.90
30150;DHT22;16962;48.646;9.026;2024-02-15T17:04:00;12.40;99.90
30150;DHT22;16962;48.646;9.026;2024-02-15T17:06:53;12.30;99.90
30150;DHT22;16962;48.646;9.026;2024-02-15T17:09:41;12.30;99.90
30150;DHT22;16962;48.646;9.026;2024-02-15T17:12:30;12.30;99.90
30150;DHT22;16962;48.646;9.026;2024-02-15T17:15:26;12.20;99.90
30150;DHT22;16962;48.646;9.026;2024-02-15T17:18:17;12.20;99.90
30150;DHT22;16962;48.646;9.026;2024-02-15T17:21:14;12.20;99.90
30150;DHT22;16962;48.646;9.026;2024-02-15T17:24:03;12.10;99.90
30150;DHT22;16962;48.646;9.026;2024-02-15T17:26:52;12.10;99.90
30150;DHT22;16962;48.646;9.026;2024-02-15T17:29:42;12.10;99.90
30150;DHT22;16962;48.646;9.026;2024-02-15T17:32:30;12.00;99.90
30150;DHT22;16962;48.646;9.026;2024-02-15T17:35:19;12.00;99.90
30150;DHT22;16962;48.646;9.026;2024-02-15T17:38:09;12.00;99.90
30150;DHT22;16962;48.646;9.026;2024-02-15T17:41:03;11.90;99.90
30150;DHT22;16962;48.646;9.026;2024-02-15T17:43:51;11.80;99.90
30150;DHT22;16962;48.646;9.026;2024-02-15T17:46:44;11.80;99.90
30150;DHT22;16962;48.646;9.026;2024-02-15T17:49:32;11.70;99.90
30150;DHT22;16962;48.646;9.026;2024-02-15T17:52:20;11.70;99.90
30150;DHT22;16962;48.646;9.026;2024-02-15T17:55:22;11.70;99.90
30150;DHT22;16962;48.646;9.026;2024-02-15T17:58:13;11.80;99.90
30150;DHT22;16962;48.646;9.026;2024-02-15T18:01:00;11.80;99.90
30150;DHT22;16962;48.646;9.026;2024-02-15T18:03:48;11.80;99.90
30150;DHT22;16962;48.646;9.026;2024-02-15T18:06:40;11.70;99.90
30150;DHT22;16962;48.646;9.026;2024-02-15T18:09:28;11.70;99.90
30150;DHT22;16962;48.646;9.026;2024-02-15T18:12:16;11.70;99.90
30150;DHT22;16962;48.646;9.026;2024-02-15T18:15:09;11.70;99.90
30150;DHT22;16962;48.646;9.026;2024-02-15T18:18:00;11.70;99.90
30150;DHT22;16962;48.646;9.026;2024-02-15T18:20:48;11.60;99.90